sensor_id;sensor_type;location;lat;lon;timestamp;pressure;altitude;pressure_sealevel;temperature;humidity
52651;BME280;38537;47.226;39.702;2022-10-31T00:02:01;99927.47;;;14.06;61.34
52651;BME280;38537;47.226;39.702;2022-10-31T00:04:29;99923.00;;;13.84;59.42
52651;BME280;38537;47.226;39.702;2022-10-31T00:06:57;99917.09;;;13.77;59.02
52651;BME280;38537;47.226;39.702;2022-10-31T00:09:25;99927.16;;;13.78;58.58
52651;BME280;38537;47.226;39.702;2022-10-31T00:11:53;99915.31;;;13.72;57.86
52651;BME280;38537;47.226;39.702;2022-10-31T00:14:20;99925.34;;;13.82;57.44
52651;BME280;38537;47.226;39.702;2022-10-31T00:16:48;99901.91;;;13.78;57.41
52651;BME280;38537;47.226;39.702;2022-10-31T00:19:16;99905.88;;;13.77;57.20
52651;BME280;38537;47.226;39.702;2022-10-31T00:21:43;99897.75;;;13.63;56.26
52651;BME280;38537;47.226;39.702;2022-10-31T00:24:11;99916.00;;;13.69;56.32
52651;BME280;38537;47.226;39.702;2022-10-31T00:26:40;99885.63;;;13.71;56.76
52651;BME280;38537;47.226;39.702;2022-10-31T00:29:10;99883.97;;;13.70;55.44
52651;BME280;38537;47.226;39.702;2022-10-31T00:31:37;99883.16;;;13.91;56.84
52651;BME280;38537;47.226;39.702;2022-10-31T00:34:04;99889.00;;;14.06;57.20
52651;BME280;38537;47.226;39.702;2022-10-31T00:36:33;99890.13;;;14.26;56.84
52651;BME280;38537;47.226;39.702;2022-10-31T00:39:01;99908.19;;;14.37;57.01
52651;BME280;38537;47.226;39.702;2022-10-31T00:41:29;99890.69;;;14.40;57.79
52651;BME280;38537;47.226;39.702;2022-10-31T00:43:56;99871.03;;;14.53;57.84
52651;BME280;38537;47.226;39.702;2022-10-31T00:46:25;99858.16;;;14.52;58.18
52651;BME280;38537;47.226;39.702;2022-10-31T00:48:53;99853.75;;;14.63;58.25
52651;BME280;38537;47.226;39.702;2022-10-31T00:51:20;99853.28;;;14.61;58.76
52651;BME280;38537;47.226;39.702;2022-10-31T00:53:48;99856.22;;;14.64;58.86
52651;BME280;38537;47.226;39.702;2022-10-31T00:56:16;99855.53;;;14.80;59.01
52651;BME280;38537;47.226;39.702;2022-10-31T00:58:44;99867.13;;;14.78;58.97
52651;BME280;38537;47.226;39.702;2022-10-31T01:01:11;99854.00;;;14.82;59.06
52651;BME280;38537;47.226;39.702;2022-10-31T01:03:39;99852.38;;;14.81;59.34
52651;BME280;38537;47.226;39.702;2022-10-31T01:06:12;99868.41;;;14.81;59.44
52651;BME280;38537;47.226;39.702;2022-10-31T01:08:40;99862.56;;;14.86;59.74
52651;BME280;38537;47.226;39.702;2022-10-31T01:11:17;99858.47;;;14.83;59.91
52651;BME280;38537;47.226;39.702;2022-10-31T01:13:47;99850.28;;;14.90;59.98
52651;BME280;38537;47.226;39.702;2022-10-31T01:16:16;99851.94;;;14.91;59.91
52651;BME280;38537;47.226;39.702;2022-10-31T01:18:44;99834.81;;;14.96;60.15
52651;BME280;38537;47.226;39.702;2022-10-31T01:21:17;99844.78;;;14.94;60.26
52651;BME280;38537;47.226;39.702;2022-10-31T01:23:48;99839.72;;;14.99;60.28
52651;BME280;38537;47.226;39.702;2022-10-31T01:26:19;99846.88;;;14.97;60.91
52651;BME280;38537;47.226;39.702;2022-10-31T01:28:54;99834.81;;;14.96;60.76
52651;BME280;38537;47.226;39.702;2022-10-31T01:31:24;99832.81;;;14.97;60.80
52651;BME280;38537;47.226;39.702;2022-10-31T01:33:53;99835.06;;;14.91;61.61
52651;BME280;38537;47.226;39.702;2022-10-31T01:36:34;99835.97;;;14.95;61.47
52651;BME280;38537;47.226;39.702;2022-10-31T01:39:09;99785.13;;;14.76;61.50
52651;BME280;38537;47.226;39.702;2022-10-31T01:41:39;99835.50;;;15.18;61.14
52651;BME280;38537;47.226;39.702;2022-10-31T01:46:54;99808.47;;;15.01;61.58
52651;BME280;38537;47.226;39.702;2022-10-31T01:49:54;99831.06;;;15.04;61.76
52651;BME280;38537;47.226;39.702;2022-10-31T01:52:32;99809.50;;;14.96;61.75
52651;BME280;38537;47.226;39.702;2022-10-31T01:57:40;99811.97;;;14.98;61.61
52651;BME280;38537;47.226;39.702;2022-10-31T02:00:11;99788.19;;;14.83;61.97
52651;BME280;38537;47.226;39.702;2022-10-31T02:02:40;99779.41;;;14.85;61.96
52651;BME280;38537;47.226;39.702;2022-10-31T02:05:10;99792.78;;;14.88;61.90
52651;BME280;38537;47.226;39.702;2022-10-31T02:07:45;99801.69;;;14.90;62.22
52651;BME280;38537;47.226;39.702;2022-10-31T02:10:15;99800.47;;;14.79;62.37
52651;BME280;38537;47.226;39.702;2022-10-31T02:12:44;99806.09;;;14.79;62.31
52651;BME280;38537;47.226;39.702;2022-10-31T02:15:15;99787.47;;;14.74;62.16
52651;BME280;38537;47.226;39.702;2022-10-31T02:17:43;99789.84;;;14.72;62.10
52651;BME280;38537;47.226;39.702;2022-10-31T02:33:50;99775.31;;;15.06;61.50
52651;BME280;38537;47.226;39.702;2022-10-31T02:36:41;99777.63;;;15.17;61.33
52651;BME280;38537;47.226;39.702;2022-10-31T02:39:30;99782.91;;;15.06;61.58
52651;BME280;38537;47.226;39.702;2022-10-31T02:42:17;99767.09;;;15.01;61.54
52651;BME280;38537;47.226;39.702;2022-10-31T02:44:56;99749.53;;;15.04;61.55
52651;BME280;38537;47.226;39.702;2022-10-31T02:47:30;99749.06;;;15.02;62.22
52651;BME280;38537;47.226;39.702;2022-10-31T02:50:02;99727.50;;;15.06;61.98
52651;BME280;38537;47.226;39.702;2022-10-31T02:52:33;99740.28;;;15.04;62.41
52651;BME280;38537;47.226;39.702;2022-10-31T02:58:11;99745.31;;;15.11;63.31
52651;BME280;38537;47.226;39.702;2022-10-31T03:00:51;99728.09;;;15.00;63.30
52651;BME280;38537;47.226;39.702;2022-10-31T03:03:33;99747.66;;;15.08;63.65
52651;BME280;38537;47.226;39.702;2022-10-31T03:06:14;99745.31;;;14.98;63.94
52651;BME280;38537;47.226;39.702;2022-10-31T03:09:18;99725.75;;;15.02;64.11
52651;BME280;38537;47.226;39.702;2022-10-31T03:17:10;99725.16;;;14.96;64.39
52651;BME280;38537;47.226;39.702;2022-10-31T03:19:43;99721.88;;;14.94;64.79
52651;BME280;38537;47.226;39.702;2022-10-31T03:22:20;99725.63;;;14.98;64.71
52651;BME280;38537;47.226;39.702;2022-10-31T03:24:50;99708.56;;;14.91;64.43
52651;BME280;38537;47.226;39.702;2022-10-31T03:27:24;99722.94;;;15.02;64.71
52651;BME280;38537;47.226;39.702;2022-10-31T03:29:55;99719.88;;;15.07;64.51
52651;BME280;38537;47.226;39.702;2022-10-31T03:32:28;99727.00;;;15.17;64.27
52651;BME280;38537;47.226;39.702;2022-10-31T03:34:59;99700.50;;;15.18;64.28
52651;BME280;38537;47.226;39.702;2022-10-31T03:37:32;99693.06;;;15.09;64.23
52651;BME280;38537;47.226;39.702;2022-10-31T03:40:02;99719.72;;;15.16;64.41
52651;BME280;38537;47.226;39.702;2022-10-31T03:42:36;99694.13;;;15.05;63.96
52651;BME280;38537;47.226;39.702;2022-10-31T03:45:23;99712.75;;;15.09;64.08
52651;BME280;38537;47.226;39.702;2022-10-31T03:47:53;99688.59;;;15.08;64.08
52651;BME280;38537;47.226;39.702;2022-10-31T03:50:21;99693.72;;;15.19;63.60
52651;BME280;38537;47.226;39.702;2022-10-31T03:53:04;99702.06;;;15.15;63.77
52651;BME280;38537;47.226;39.702;2022-10-31T03:55:47;99680.38;;;15.16;63.50
52651;BME280;38537;47.226;39.702;2022-10-31T03:58:29;99699.44;;;15.22;63.74
52651;BME280;38537;47.226;39.702;2022-10-31T04:01:01;99695.94;;;15.25;63.41
52651;BME280;38537;47.226;39.702;2022-10-31T04:03:32;99700.06;;;15.16;63.62
52651;BME280;38537;47.226;39.702;2022-10-31T04:06:08;99690.19;;;15.22;63.26
52651;BME280;38537;47.226;39.702;2022-10-31T04:08:45;99669.84;;;15.13;63.27
52651;BME280;38537;47.226;39.702;2022-10-31T04:11:18;99681.75;;;15.22;63.26
52651;BME280;38537;47.226;39.702;2022-10-31T04:14:06;99675.66;;;15.20;63.12
52651;BME280;38537;47.226;39.702;2022-10-31T04:16:35;99685.91;;;15.12;62.86
52651;BME280;38537;47.226;39.702;2022-10-31T04:19:02;99691.19;;;15.01;62.85
52651;BME280;38537;47.226;39.702;2022-10-31T04:21:30;99681.50;;;14.74;63.33
52651;BME280;38537;47.226;39.702;2022-10-31T04:24:01;99695.44;;;14.59;63.72
52651;BME280;38537;47.226;39.702;2022-10-31T04:26:30;99700.63;;;14.69;63.65
52651;BME280;38537;47.226;39.702;2022-10-31T04:28:58;99695.22;;;14.52;63.60
52651;BME280;38537;47.226;39.702;2022-10-31T04:31:29;99686.09;;;14.55;63.72
52651;BME280;38537;47.226;39.702;2022-10-31T04:33:57;99688.22;;;14.46;63.54
52651;BME280;38537;47.226;39.702;2022-10-31T04:36:24;99676.97;;;14.46;63.67
52651;BME280;38537;47.226;39.702;2022-10-31T04:38:52;99678.25;;;14.48;63.61
52651;BME280;38537;47.226;39.702;2022-10-31T04:41:40;99678.84;;;14.66;63.12
52651;BME280;38537;47.226;39.702;2022-10-31T04:44:13;99645.56;;;14.56;62.70
52651;BME280;38537;47.226;39.702;2022-10-31T04:46:41;99694.06;;;14.65;63.11
52651;BME280;38537;47.226;39.702;2022-10-31T04:49:10;99693.22;;;14.64;62.70
52651;BME280;38537;47.226;39.702;2022-10-31T04:51:38;99697.47;;;14.46;62.38
52651;BME280;38537;47.226;39.702;2022-10-31T04:54:08;99683.06;;;14.48;62.67
52651;BME280;38537;47.226;39.702;2022-10-31T04:56:54;99661.50;;;14.52;62.60
52651;BME280;38537;47.226;39.702;2022-10-31T04:59:22;99662.91;;;14.70;62.42
52651;BME280;38537;47.226;39.702;2022-10-31T05:01:52;99687.94;;;14.51;61.73
52651;BME280;38537;47.226;39.702;2022-10-31T05:04:27;99698.72;;;14.61;62.49
52651;BME280;38537;47.226;39.702;2022-10-31T05:06:54;99683.06;;;14.48;62.19
52651;BME280;38537;47.226;39.702;2022-10-31T05:09:22;99681.28;;;14.43;62.14
52651;BME280;38537;47.226;39.702;2022-10-31T05:11:52;99685.41;;;14.46;62.04
52651;BME280;38537;47.226;39.702;2022-10-31T05:14:47;99690.50;;;14.31;61.97
52651;BME280;38537;47.226;39.702;2022-10-31T05:17:35;99684.53;;;14.21;62.18
52651;BME280;38537;47.226;39.702;2022-10-31T05:20:19;99695.63;;;14.05;61.98
52651;BME280;38537;47.226;39.702;2022-10-31T05:23:13;99695.56;;;13.81;62.29
52651;BME280;38537;47.226;39.702;2022-10-31T05:25:41;99698.91;;;13.74;62.72
52651;BME280;38537;47.226;39.702;2022-10-31T05:28:10;99687.56;;;13.70;62.75
52651;BME280;38537;47.226;39.702;2022-10-31T05:30:37;99676.03;;;13.84;62.51
52651;BME280;38537;47.226;39.702;2022-10-31T05:33:08;99687.16;;;13.93;62.14
52651;BME280;38537;47.226;39.702;2022-10-31T05:35:57;99673.59;;;13.95;62.15
52651;BME280;38537;47.226;39.702;2022-10-31T05:38:43;99673.72;;;13.98;62.03
52651;BME280;38537;47.226;39.702;2022-10-31T05:41:22;99680.94;;;13.87;61.18
52651;BME280;38537;47.226;39.702;2022-10-31T05:43:52;99687.84;;;13.90;61.74
52651;BME280;38537;47.226;39.702;2022-10-31T05:46:23;99708.22;;;13.99;61.68
52651;BME280;38537;47.226;39.702;2022-10-31T05:49:09;99700.63;;;13.99;61.54
52651;BME280;38537;47.226;39.702;2022-10-31T05:51:55;99702.84;;;13.94;61.53
52651;BME280;38537;47.226;39.702;2022-10-31T05:54:31;99701.50;;;13.79;61.50
52651;BME280;38537;47.226;39.702;2022-10-31T05:56:59;99702.34;;;13.80;61.43
52651;BME280;38537;47.226;39.702;2022-10-31T05:59:27;99697.41;;;13.77;61.84
52651;BME280;38537;47.226;39.702;2022-10-31T06:01:54;99707.81;;;13.76;62.03
52651;BME280;38537;47.226;39.702;2022-10-31T06:04:42;99682.75;;;13.59;62.08
52651;BME280;38537;47.226;39.702;2022-10-31T06:07:10;99690.56;;;13.65;62.22
52651;BME280;38537;47.226;39.702;2022-10-31T06:09:37;99691.97;;;13.59;62.06
52651;BME280;38537;47.226;39.702;2022-10-31T06:12:06;99690.38;;;13.70;62.44
52651;BME280;38537;47.226;39.702;2022-10-31T06:15:07;99698.91;;;13.74;62.24
52651;BME280;38537;47.226;39.702;2022-10-31T06:17:36;99694.53;;;13.85;62.35
52651;BME280;38537;47.226;39.702;2022-10-31T06:20:24;99668.66;;;13.80;61.99
52651;BME280;38537;47.226;39.702;2022-10-31T06:23:02;99677.69;;;13.97;62.24
52651;BME280;38537;47.226;39.702;2022-10-31T06:25:33;99672.44;;;14.08;61.83
52651;BME280;38537;47.226;39.702;2022-10-31T06:28:03;99674.09;;;14.09;61.89
52651;BME280;38537;47.226;39.702;2022-10-31T06:30:43;99679.59;;;14.18;61.77
52651;BME280;38537;47.226;39.702;2022-10-31T06:33:11;99673.63;;;14.07;61.86
52651;BME280;38537;47.226;39.702;2022-10-31T06:35:47;99672.13;;;14.22;61.94
52651;BME280;38537;47.226;39.702;2022-10-31T06:38:16;99672.91;;;14.10;61.91
52651;BME280;38537;47.226;39.702;2022-10-31T06:40:47;99681.94;;;14.03;62.21
52651;BME280;38537;47.226;39.702;2022-10-31T06:43:21;99661.56;;;13.94;62.65
52651;BME280;38537;47.226;39.702;2022-10-31T06:46:01;99679.56;;;13.93;61.98
52651;BME280;38537;47.226;39.702;2022-10-31T06:48:46;99662.94;;;13.88;62.40
52651;BME280;38537;47.226;39.702;2022-10-31T06:51:19;99648.34;;;13.83;62.46
52651;BME280;38537;47.226;39.702;2022-10-31T06:53:49;99653.34;;;13.89;61.87
52651;BME280;38537;47.226;39.702;2022-10-31T06:56:17;99658.72;;;13.82;62.23
52651;BME280;38537;47.226;39.702;2022-10-31T06:58:48;99657.31;;;13.76;62.28
52651;BME280;38537;47.226;39.702;2022-10-31T07:01:22;99668.63;;;13.67;62.19
52651;BME280;38537;47.226;39.702;2022-10-31T07:03:50;99651.53;;;13.60;62.41
52651;BME280;38537;47.226;39.702;2022-10-31T07:06:19;99654.34;;;13.60;62.33
52651;BME280;38537;47.226;39.702;2022-10-31T07:08:49;99651.63;;;13.52;62.12
52651;BME280;38537;47.226;39.702;2022-10-31T07:11:17;99659.81;;;13.57;62.03
52651;BME280;38537;47.226;39.702;2022-10-31T07:13:44;99640.25;;;13.48;62.21
52651;BME280;38537;47.226;39.702;2022-10-31T07:16:15;99654.47;;;13.31;62.45
52651;BME280;38537;47.226;39.702;2022-10-31T07:18:43;99655.34;;;13.23;62.38
52651;BME280;38537;47.226;39.702;2022-10-31T07:21:12;99601.75;;;13.03;62.71
52651;BME280;38537;47.226;39.702;2022-10-31T07:23:40;99634.41;;;13.41;62.67
52651;BME280;38537;47.226;39.702;2022-10-31T07:26:33;99601.34;;;13.47;62.74
52651;BME280;38537;47.226;39.702;2022-10-31T07:29:01;99607.53;;;13.40;62.53
52651;BME280;38537;47.226;39.702;2022-10-31T07:31:29;99630.78;;;13.41;62.42
52651;BME280;38537;47.226;39.702;2022-10-31T07:34:02;99621.16;;;13.29;62.37
52651;BME280;38537;47.226;39.702;2022-10-31T07:36:44;99610.22;;;13.36;62.10
52651;BME280;38537;47.226;39.702;2022-10-31T07:39:12;99626.22;;;13.36;61.61
52651;BME280;38537;47.226;39.702;2022-10-31T07:41:40;99594.38;;;13.20;61.52
52651;BME280;38537;47.226;39.702;2022-10-31T07:44:09;99608.91;;;13.13;61.75
52651;BME280;38537;47.226;39.702;2022-10-31T07:47:03;99599.84;;;12.95;62.05
52651;BME280;38537;47.226;39.702;2022-10-31T07:50:02;99623.47;;;13.07;62.48
52651;BME280;38537;47.226;39.702;2022-10-31T07:53:07;99597.56;;;13.10;62.17
52651;BME280;38537;47.226;39.702;2022-10-31T07:55:59;99618.44;;;13.21;62.04
52651;BME280;38537;47.226;39.702;2022-10-31T07:58:29;99623.09;;;13.17;62.31
52651;BME280;38537;47.226;39.702;2022-10-31T08:00:58;99615.75;;;13.03;62.34
52651;BME280;38537;47.226;39.702;2022-10-31T08:03:34;99629.09;;;13.07;62.00
52651;BME280;38537;47.226;39.702;2022-10-31T08:06:30;99621.59;;;12.98;61.99
52651;BME280;38537;47.226;39.702;2022-10-31T08:09:18;99610.25;;;12.95;62.66
52651;BME280;38537;47.226;39.702;2022-10-31T08:11:46;99622.19;;;13.04;62.28
52651;BME280;38537;47.226;39.702;2022-10-31T08:14:15;99639.47;;;13.06;62.72
52651;BME280;38537;47.226;39.702;2022-10-31T08:16:42;99636.63;;;12.94;62.76
52651;BME280;38537;47.226;39.702;2022-10-31T08:19:11;99628.06;;;12.90;62.76
52651;BME280;38537;47.226;39.702;2022-10-31T08:21:39;99629.03;;;12.94;62.69
52651;BME280;38537;47.226;39.702;2022-10-31T08:24:08;99607.22;;;12.79;62.39
52651;BME280;38537;47.226;39.702;2022-10-31T08:26:39;99630.78;;;12.78;62.54
52651;BME280;38537;47.226;39.702;2022-10-31T08:29:09;99598.00;;;12.58;62.33
52651;BME280;38537;47.226;39.702;2022-10-31T08:31:37;99637.91;;;12.76;62.64
52651;BME280;38537;47.226;39.702;2022-10-31T08:34:27;99625.31;;;12.61;62.49
52651;BME280;38537;47.226;39.702;2022-10-31T08:37:13;99604.28;;;12.55;62.02
52651;BME280;38537;47.226;39.702;2022-10-31T08:39:51;99611.06;;;12.54;62.40
52651;BME280;38537;47.226;39.702;2022-10-31T08:42:20;99589.22;;;12.39;62.68
52651;BME280;38537;47.226;39.702;2022-10-31T08:44:48;99612.25;;;12.44;62.54
52651;BME280;38537;47.226;39.702;2022-10-31T08:47:17;99609.53;;;12.56;62.66
52651;BME280;38537;47.226;39.702;2022-10-31T08:49:44;99609.19;;;12.58;62.23
52651;BME280;38537;47.226;39.702;2022-10-31T08:52:13;99598.31;;;12.56;62.08
52651;BME280;38537;47.226;39.702;2022-10-31T08:54:43;99607.09;;;12.55;61.89
52651;BME280;38537;47.226;39.702;2022-10-31T08:57:29;99599.44;;;12.64;61.59
52651;BME280;38537;47.226;39.702;2022-10-31T08:59:58;99624.31;;;12.65;61.39
52651;BME280;38537;47.226;39.702;2022-10-31T09:02:41;99601.38;;;12.72;61.49
52651;BME280;38537;47.226;39.702;2022-10-31T09:05:08;99621.84;;;12.85;61.53
52651;BME280;38537;47.226;39.702;2022-10-31T09:07:36;99610.09;;;12.91;61.01
52651;BME280;38537;47.226;39.702;2022-10-31T09:10:04;99605.72;;;12.82;60.60
52651;BME280;38537;47.226;39.702;2022-10-31T09:12:34;99584.41;;;12.89;61.19
52651;BME280;38537;47.226;39.702;2022-10-31T09:15:32;99605.16;;;13.09;60.84
52651;BME280;38537;47.226;39.702;2022-10-31T09:18:21;99588.66;;;12.95;60.68
52651;BME280;38537;47.226;39.702;2022-10-31T09:20:58;99615.50;;;12.96;60.56
52651;BME280;38537;47.226;39.702;2022-10-31T09:23:29;99650.97;;;12.92;61.28
52651;BME280;38537;47.226;39.702;2022-10-31T09:26:00;99674.78;;;12.27;60.36
52651;BME280;38537;47.226;39.702;2022-10-31T09:28:34;99689.63;;;10.78;64.64
52651;BME280;38537;47.226;39.702;2022-10-31T09:31:07;99697.56;;;10.05;66.85
52651;BME280;38537;47.226;39.702;2022-10-31T09:33:52;99669.16;;;9.41;69.49
52651;BME280;38537;47.226;39.702;2022-10-31T09:36:39;99688.13;;;9.08;71.11
52651;BME280;38537;47.226;39.702;2022-10-31T09:39:17;99687.13;;;8.90;72.44
52651;BME280;38537;47.226;39.702;2022-10-31T09:50:50;99677.69;;;8.78;75.99
52651;BME280;38537;47.226;39.702;2022-10-31T09:53:57;99680.88;;;8.71;76.25
52651;BME280;38537;47.226;39.702;2022-10-31T09:56:27;99677.81;;;8.59;76.04
52651;BME280;38537;47.226;39.702;2022-10-31T09:59:00;99678.34;;;8.47;76.36
52651;BME280;38537;47.226;39.702;2022-10-31T10:04:31;99674.00;;;8.55;75.64
52651;BME280;38537;47.226;39.702;2022-10-31T10:13:41;99689.69;;;8.51;75.85
52651;BME280;38537;47.226;39.702;2022-10-31T10:16:26;99677.53;;;8.47;75.40
52651;BME280;38537;47.226;39.702;2022-10-31T10:22:16;99686.91;;;8.65;75.33
52651;BME280;38537;47.226;39.702;2022-10-31T10:32:56;99685.50;;;9.12;74.34
52651;BME280;38537;47.226;39.702;2022-10-31T10:38:46;99676.00;;;9.35;74.59
52651;BME280;38537;47.226;39.702;2022-10-31T10:41:23;99666.16;;;9.29;74.48
52651;BME280;38537;47.226;39.702;2022-10-31T10:43:57;99704.31;;;9.73;74.76
52651;BME280;38537;47.226;39.702;2022-10-31T10:46:42;99690.22;;;9.78;73.54
52651;BME280;38537;47.226;39.702;2022-10-31T10:49:52;99702.56;;;9.86;72.54
52651;BME280;38537;47.226;39.702;2022-10-31T10:52:30;99690.84;;;9.75;71.83
52651;BME280;38537;47.226;39.702;2022-10-31T10:55:39;99679.88;;;9.79;71.75
52651;BME280;38537;47.226;39.702;2022-10-31T10:58:11;99663.19;;;9.56;71.48
52651;BME280;38537;47.226;39.702;2022-10-31T11:00:46;99670.59;;;9.61;71.76
52651;BME280;38537;47.226;39.702;2022-10-31T11:03:15;99648.53;;;9.42;71.65
52651;BME280;38537;47.226;39.702;2022-10-31T11:05:55;99689.81;;;9.40;71.92
52651;BME280;38537;47.226;39.702;2022-10-31T11:08:30;99670.75;;;9.34;72.36
52651;BME280;38537;47.226;39.702;2022-10-31T11:11:10;99661.34;;;9.21;72.76
52651;BME280;38537;47.226;39.702;2022-10-31T11:13:48;99678.78;;;9.35;72.93
52651;BME280;38537;47.226;39.702;2022-10-31T11:16:35;99689.09;;;9.57;72.72
52651;BME280;38537;47.226;39.702;2022-10-31T11:19:25;99693.28;;;9.68;72.89
52651;BME280;38537;47.226;39.702;2022-10-31T11:22:06;99702.75;;;9.89;72.06
52651;BME280;38537;47.226;39.702;2022-10-31T11:24:38;99692.44;;;9.98;71.62
52651;BME280;38537;47.226;39.702;2022-10-31T11:27:26;99710.34;;;10.28;71.30
52651;BME280;38537;47.226;39.702;2022-10-31T11:30:04;99706.41;;;10.29;71.00
52651;BME280;38537;47.226;39.702;2022-10-31T11:32:32;99686.28;;;10.10;71.13
52651;BME280;38537;47.226;39.702;2022-10-31T11:35:09;99711.13;;;10.20;70.96
52651;BME280;38537;47.226;39.702;2022-10-31T11:37:42;99701.06;;;10.11;71.46
52651;BME280;38537;47.226;39.702;2022-10-31T11:40:18;99716.97;;;10.10;71.89
52651;BME280;38537;47.226;39.702;2022-10-31T11:42:48;99704.09;;;10.01;71.97
52651;BME280;38537;47.226;39.702;2022-10-31T11:45:28;99701.63;;;9.99;72.63
52651;BME280;38537;47.226;39.702;2022-10-31T11:47:57;99723.88;;;10.13;72.08
52651;BME280;38537;47.226;39.702;2022-10-31T11:50:40;99696.53;;;9.92;72.41
52651;BME280;38537;47.226;39.702;2022-10-31T11:53:17;99702.13;;;10.01;72.58
52651;BME280;38537;47.226;39.702;2022-10-31T11:55:47;99695.56;;;9.97;72.25
52651;BME280;38537;47.226;39.702;2022-10-31T11:58:27;99703.66;;;10.07;71.99
52651;BME280;38537;47.226;39.702;2022-10-31T12:00:59;99718.84;;;10.23;71.57
52651;BME280;38537;47.226;39.702;2022-10-31T12:03:53;99720.38;;;10.07;71.31
52651;BME280;38537;47.226;39.702;2022-10-31T12:06:29;99721.69;;;9.79;71.75
52651;BME280;38537;47.226;39.702;2022-10-31T12:09:00;99722.09;;;9.63;72.35
52651;BME280;38537;47.226;39.702;2022-10-31T12:11:39;99734.72;;;9.61;72.74
52651;BME280;38537;47.226;39.702;2022-10-31T12:14:21;99741.50;;;9.46;72.66
52651;BME280;38537;47.226;39.702;2022-10-31T12:31:03;99777.78;;;8.83;72.65
52651;BME280;38537;47.226;39.702;2022-10-31T12:57:33;99842.31;;;8.11;67.30
52651;BME280;38537;47.226;39.702;2022-10-31T13:00:10;99834.03;;;8.06;68.24
52651;BME280;38537;47.226;39.702;2022-10-31T13:05:43;99833.06;;;8.16;68.11
52651;BME280;38537;47.226;39.702;2022-10-31T13:08:22;99818.25;;;8.20;68.28
52651;BME280;38537;47.226;39.702;2022-10-31T13:11:02;99848.28;;;8.37;68.37
52651;BME280;38537;47.226;39.702;2022-10-31T13:13:37;99851.09;;;8.18;68.30
52651;BME280;38537;47.226;39.702;2022-10-31T13:16:12;99866.22;;;8.26;68.96
52651;BME280;38537;47.226;39.702;2022-10-31T13:21:24;99883.94;;;8.16;68.23
52651;BME280;38537;47.226;39.702;2022-10-31T13:24:00;99870.56;;;8.18;67.60
52651;BME280;38537;47.226;39.702;2022-10-31T13:26:38;99913.16;;;8.14;63.27
52651;BME280;38537;47.226;39.702;2022-10-31T13:32:04;99900.63;;;8.16;61.28
52651;BME280;38537;47.226;39.702;2022-10-31T13:34:52;99905.13;;;8.12;57.25
52651;BME280;38537;47.226;39.702;2022-10-31T13:37:34;99917.03;;;7.99;56.67
52651;BME280;38537;47.226;39.702;2022-10-31T13:40:29;99916.03;;;8.09;55.32
52651;BME280;38537;47.226;39.702;2022-10-31T13:43:20;99908.97;;;8.16;55.69
52651;BME280;38537;47.226;39.702;2022-10-31T13:45:53;99909.63;;;8.08;55.84
52651;BME280;38537;47.226;39.702;2022-10-31T13:51:00;99921.53;;;7.95;55.66
52651;BME280;38537;47.226;39.702;2022-10-31T13:53:38;99905.28;;;8.02;54.37
52651;BME280;38537;47.226;39.702;2022-10-31T13:56:33;99921.09;;;7.88;54.52
52651;BME280;38537;47.226;39.702;2022-10-31T14:01:46;99927.78;;;7.68;55.99
52651;BME280;38537;47.226;39.702;2022-10-31T14:04:48;99956.03;;;7.75;55.50
52651;BME280;38537;47.226;39.702;2022-10-31T14:07:22;99958.63;;;7.67;55.68
52651;BME280;38537;47.226;39.702;2022-10-31T14:17:54;99979.44;;;7.69;55.64
52651;BME280;38537;47.226;39.702;2022-10-31T14:20:37;99998.59;;;7.71;54.44
52651;BME280;38537;47.226;39.702;2022-10-31T14:28:35;99985.50;;;7.52;56.55
52651;BME280;38537;47.226;39.702;2022-10-31T14:31:39;99965.78;;;7.54;56.64
52651;BME280;38537;47.226;39.702;2022-10-31T14:53:05;100092.09;;;7.09;56.11
52651;BME280;38537;47.226;39.702;2022-10-31T14:55:45;100072.91;;;7.12;56.84
52651;BME280;38537;47.226;39.702;2022-10-31T14:58:21;100101.19;;;7.14;56.79
52651;BME280;38537;47.226;39.702;2022-10-31T15:00:55;100125.78;;;7.26;57.10
52651;BME280;38537;47.226;39.702;2022-10-31T15:03:35;100104.41;;;7.27;56.38
52651;BME280;38537;47.226;39.702;2022-10-31T15:06:15;100125.47;;;7.33;56.38
52651;BME280;38537;47.226;39.702;2022-10-31T15:08:52;100142.53;;;7.16;57.17
52651;BME280;38537;47.226;39.702;2022-10-31T15:11:26;100143.88;;;7.23;57.62
52651;BME280;38537;47.226;39.702;2022-10-31T15:13:57;100230.81;;;7.19;58.69
52651;BME280;38537;47.226;39.702;2022-10-31T15:16:32;100255.59;;;7.10;59.92
52651;BME280;38537;47.226;39.702;2022-10-31T15:19:05;100279.84;;;6.35;63.21
52651;BME280;38537;47.226;39.702;2022-10-31T15:21:34;100356.22;;;4.84;69.01
52651;BME280;38537;47.226;39.702;2022-10-31T15:24:12;100290.16;;;4.25;71.41
52651;BME280;38537;47.226;39.702;2022-10-31T15:26:48;100252.38;;;3.94;72.36
52651;BME280;38537;47.226;39.702;2022-10-31T15:29:21;100268.84;;;3.73;73.26
52651;BME280;38537;47.226;39.702;2022-10-31T15:31:53;100253.13;;;3.79;73.37
52651;BME280;38537;47.226;39.702;2022-10-31T15:34:32;100258.66;;;3.79;74.99
52651;BME280;38537;47.226;39.702;2022-10-31T15:37:02;100228.72;;;3.61;74.20
52651;BME280;38537;47.226;39.702;2022-10-31T15:39:31;100262.28;;;3.85;74.00
52651;BME280;38537;47.226;39.702;2022-10-31T15:41:59;100263.13;;;3.85;73.18
52651;BME280;38537;47.226;39.702;2022-10-31T15:44:36;100254.59;;;3.92;73.08
52651;BME280;38537;47.226;39.702;2022-10-31T15:47:15;100267.56;;;3.86;71.42
52651;BME280;38537;47.226;39.702;2022-10-31T15:49:51;100269.56;;;4.01;71.00
52651;BME280;38537;47.226;39.702;2022-10-31T15:52:36;100285.38;;;4.10;70.66
52651;BME280;38537;47.226;39.702;2022-10-31T15:55:22;100276.69;;;3.92;67.92
52651;BME280;38537;47.226;39.702;2022-10-31T15:57:53;100300.78;;;4.01;67.70
52651;BME280;38537;47.226;39.702;2022-10-31T16:02:49;100315.06;;;3.88;67.00